createdAt,value
2022-11-26T00:02:30.109Z,4.50
2022-11-26T00:04:58.682Z,4.90
2022-11-26T00:07:30.231Z,4.73
2022-11-26T00:09:59.156Z,5.10
2022-11-26T00:12:35.911Z,4.43
2022-11-26T00:16:03.234Z,4.10
2022-11-26T00:18:29.811Z,4.57
2022-11-26T00:21:00.414Z,4.87
2022-11-26T00:23:28.057Z,3.87
2022-11-26T00:26:10.063Z,4.63
2022-11-26T00:28:37.769Z,4.13
2022-11-26T00:31:14.543Z,4.23
2022-11-26T00:33:41.686Z,4.17
2022-11-26T00:36:39.416Z,4.13
2022-11-26T00:39:39.026Z,3.80
2022-11-26T00:42:05.488Z,5.37
2022-11-26T00:44:32.553Z,4.40
2022-11-26T00:46:59.456Z,4.27
2022-11-26T00:49:28.012Z,3.53
2022-11-26T00:51:54.486Z,4.13
2022-11-26T00:54:22.601Z,3.40
2022-11-26T00:56:49.948Z,3.43
2022-11-26T00:59:21.316Z,4.23
2022-11-26T01:01:48.332Z,5.83
2022-11-26T01:04:14.892Z,4.90
2022-11-26T01:06:43.991Z,5.23
2022-11-26T01:09:19.996Z,3.40
2022-11-26T01:11:51.062Z,3.60
2022-11-26T01:14:22.108Z,3.63
2022-11-26T01:16:50.013Z,3.90
2022-11-26T01:19:16.539Z,3.83
2022-11-26T01:21:43.782Z,3.90
2022-11-26T01:24:10.364Z,3.53
2022-11-26T01:26:40.726Z,3.67
2022-11-26T01:29:14.984Z,3.73
2022-11-26T01:31:41.541Z,3.47
2022-11-26T01:34:08.042Z,3.83
2022-11-26T01:36:39.733Z,3.87
2022-11-26T01:39:19.764Z,3.13
2022-11-26T01:42:41.704Z,3.67
2022-11-26T01:45:21.679Z,3.37
2022-11-26T01:47:49.236Z,3.67
2022-11-26T01:52:40.285Z,3.13
2022-11-26T01:55:16.847Z,3.27
2022-11-26T01:57:44.242Z,3.63
2022-11-26T02:00:12.224Z,3.67
2022-11-26T02:02:39.736Z,2.90
2022-11-26T02:05:20.890Z,3.03
2022-11-26T02:07:47.855Z,2.33
2022-11-26T02:10:14.735Z,3.10
2022-11-26T02:12:42.671Z,3.07
2022-11-26T02:15:11.550Z,2.53
2022-11-26T02:17:59.035Z,3.27
2022-11-26T02:23:03.716Z,2.47
2022-11-26T02:27:20.636Z,3.00
2022-11-26T02:30:12.923Z,3.30
2022-11-26T02:33:05.611Z,2.93
2022-11-26T02:36:06.508Z,2.97
2022-11-26T02:38:38.610Z,2.87
2022-11-26T02:41:05.478Z,2.60
2022-11-26T02:43:34.058Z,2.93
2022-11-26T02:46:08.871Z,3.00
2022-11-26T02:48:42.440Z,2.60
2022-11-26T02:51:20.412Z,3.57
2022-11-26T02:53:50.441Z,3.10
2022-11-26T02:56:26.924Z,3.47
2022-11-26T02:58:56.170Z,3.53
2022-11-26T03:01:41.978Z,2.63
2022-11-26T03:04:18.812Z,2.77
2022-11-26T03:06:46.615Z,3.10
2022-11-26T03:09:16.076Z,2.90
2022-11-26T03:11:43.089Z,4.20
2022-11-26T03:14:09.649Z,3.60
2022-11-26T03:16:36.148Z,4.67
2022-11-26T03:19:02.694Z,4.37
2022-11-26T03:21:31.536Z,3.47
2022-11-26T03:23:58.053Z,3.20
2022-11-26T03:26:24.549Z,3.53
2022-11-26T03:28:51.206Z,2.90
2022-11-26T03:31:17.721Z,3.73
2022-11-26T03:33:44.234Z,4.00
2022-11-26T03:36:10.715Z,3.90
2022-11-26T03:38:37.155Z,3.30
2022-11-26T03:41:04.462Z,3.17
2022-11-26T03:43:30.917Z,3.43
2022-11-26T03:45:57.455Z,3.30
2022-11-26T03:48:23.983Z,3.50
2022-11-26T03:50:50.459Z,3.53
2022-11-26T03:53:16.903Z,3.70
2022-11-26T03:55:44.281Z,3.50
2022-11-26T03:58:10.729Z,3.77
2022-11-26T04:00:37.182Z,3.53
2022-11-26T04:03:03.745Z,3.50
2022-11-26T04:05:30.277Z,3.40
2022-11-26T04:07:56.786Z,3.87
2022-11-26T04:10:23.555Z,2.73
2022-11-26T04:12:50.023Z,3.53
2022-11-26T04:15:16.594Z,3.30
2022-11-26T04:17:43.038Z,2.87
2022-11-26T04:20:10.219Z,2.50
2022-11-26T04:22:36.725Z,3.07
2022-11-26T04:25:03.753Z,2.73
2022-11-26T04:27:30.234Z,2.77
2022-11-26T04:29:56.689Z,2.53
2022-11-26T04:32:23.250Z,2.87
2022-11-26T04:34:49.749Z,3.07
2022-11-26T04:37:16.219Z,2.87
2022-11-26T04:39:42.701Z,3.03
2022-11-26T04:42:09.160Z,2.90
2022-11-26T04:44:35.749Z,2.50
2022-11-26T04:47:02.383Z,2.67
2022-11-26T04:49:29.165Z,2.83
2022-11-26T04:51:55.799Z,3.13
2022-11-26T04:54:22.362Z,2.77
2022-11-26T04:56:49.111Z,2.93
2022-11-26T04:59:16.058Z,2.93
2022-11-26T05:01:42.805Z,2.73
2022-11-26T05:04:09.316Z,3.10
2022-11-26T05:06:35.809Z,3.50
2022-11-26T05:09:02.512Z,2.93
2022-11-26T05:11:29.003Z,2.73
2022-11-26T05:13:55.481Z,2.67
2022-11-26T05:16:22.003Z,2.80
2022-11-26T05:18:48.491Z,2.67
2022-11-26T05:21:14.955Z,3.23
2022-11-26T05:23:41.448Z,2.90
2022-11-26T05:26:07.897Z,2.93
2022-11-26T05:28:34.377Z,2.97
2022-11-26T05:31:03.180Z,2.43
2022-11-26T05:33:29.941Z,2.33
2022-11-26T05:35:56.535Z,2.63
2022-11-26T05:38:23.196Z,2.33
2022-11-26T05:40:49.837Z,2.83
2022-11-26T05:43:16.449Z,1.90
2022-11-26T05:45:43.040Z,2.63
2022-11-26T05:48:09.559Z,6.43
2022-11-26T05:50:36.282Z,5.40
2022-11-26T05:53:03.488Z,4.30
2022-11-26T05:55:30.394Z,4.53
2022-11-26T05:57:56.942Z,4.77
2022-11-26T06:00:23.698Z,4.20
2022-11-26T06:02:50.352Z,4.10
2022-11-26T06:05:17.041Z,4.17
2022-11-26T06:07:45.018Z,4.03
2022-11-26T06:10:13.244Z,4.17
2022-11-26T06:12:39.725Z,5.67
2022-11-26T06:15:07.046Z,5.70
2022-11-26T06:17:33.515Z,5.23
2022-11-26T06:20:00.003Z,5.13
2022-11-26T06:22:26.492Z,3.70
2022-11-26T06:24:52.983Z,2.67
2022-11-26T06:27:19.487Z,2.30
2022-11-26T06:29:45.980Z,2.40
2022-11-26T06:32:12.431Z,2.60
2022-11-26T06:34:39.245Z,3.00
2022-11-26T06:37:06.718Z,3.07
2022-11-26T06:39:33.179Z,4.27
2022-11-26T06:41:59.646Z,6.60
2022-11-26T06:44:26.131Z,10.77
2022-11-26T06:46:52.595Z,12.13
2022-11-26T06:49:19.096Z,14.93
2022-11-26T06:51:45.559Z,11.83
2022-11-26T06:54:12.031Z,12.47
2022-11-26T06:56:38.656Z,13.67
2022-11-26T06:59:05.138Z,13.93
2022-11-26T07:01:31.744Z,15.10
2022-11-26T07:03:58.639Z,16.87
2022-11-26T07:06:28.508Z,16.50
2022-11-26T07:08:57.978Z,18.90
2022-11-26T07:11:26.066Z,16.10
2022-11-26T07:13:52.524Z,19.63
2022-11-26T07:16:19.459Z,14.27
2022-11-26T07:18:59.400Z,9.40
2022-11-26T07:21:29.723Z,10.00
2022-11-26T07:23:56.332Z,16.60
2022-11-26T07:26:23.223Z,20.17
2022-11-26T07:28:49.886Z,19.53
2022-11-26T07:31:20.591Z,13.87
2022-11-26T07:33:48.218Z,9.80
2022-11-26T07:36:29.625Z,9.70
2022-11-26T07:38:58.545Z,10.47
2022-11-26T07:41:26.409Z,9.13
2022-11-26T07:43:53.688Z,8.27
2022-11-26T07:46:24.107Z,11.23
2022-11-26T07:48:51.021Z,11.33
2022-11-26T07:51:25.171Z,12.67
2022-11-26T07:53:52.682Z,8.73
2022-11-26T07:56:19.513Z,6.57
2022-11-26T07:58:46.615Z,7.40
2022-11-26T08:01:22.973Z,7.27
2022-11-26T08:03:51.268Z,6.10
2022-11-26T08:06:21.679Z,6.60
2022-11-26T08:08:48.934Z,7.33
2022-11-26T08:11:28.492Z,8.50
2022-11-26T08:14:04.625Z,9.00
2022-11-26T08:16:32.408Z,6.03
2022-11-26T08:19:02.644Z,9.30
2022-11-26T08:21:29.288Z,10.60
2022-11-26T08:23:56.141Z,11.67
2022-11-26T08:26:34.563Z,11.00
2022-11-26T08:29:02.592Z,9.17
2022-11-26T08:31:29.238Z,11.03
2022-11-26T08:33:58.123Z,14.40
2022-11-26T08:36:25.684Z,15.73
2022-11-26T08:38:52.140Z,15.93
2022-11-26T08:41:18.604Z,15.77
2022-11-26T08:46:41.775Z,12.73
2022-11-26T08:49:12.536Z,9.63
2022-11-26T08:51:39.012Z,12.27
2022-11-26T08:54:05.532Z,11.07
2022-11-26T08:56:32.288Z,12.00
2022-11-26T08:58:58.741Z,14.13
2022-11-26T09:01:29.421Z,13.00
2022-11-26T09:03:59.233Z,16.20
2022-11-26T09:06:28.884Z,15.33
2022-11-26T09:09:13.781Z,18.27
2022-11-26T09:11:55.789Z,17.00
2022-11-26T09:14:26.469Z,13.97
2022-11-26T09:16:55.508Z,14.33
2022-11-26T09:19:23.136Z,11.53
2022-11-26T09:21:49.988Z,9.50
2022-11-26T09:24:17.014Z,8.47
2022-11-26T09:26:44.059Z,7.07
2022-11-26T09:29:17.120Z,7.60
2022-11-26T09:32:15.327Z,11.37
2022-11-26T09:34:48.217Z,10.07
2022-11-26T09:37:14.688Z,9.77
2022-11-26T09:39:41.169Z,10.03
2022-11-26T09:44:07.195Z,8.87
2022-11-26T09:47:55.204Z,6.57
2022-11-26T09:50:30.904Z,5.93
2022-11-26T09:53:35.889Z,5.70
2022-11-26T09:56:12.260Z,6.30
2022-11-26T09:59:04.790Z,6.47
2022-11-26T10:01:33.705Z,5.83
2022-11-26T10:04:00.370Z,6.47
2022-11-26T10:10:43.431Z,6.90
2022-11-26T10:16:16.057Z,4.97
2022-11-26T10:19:13.592Z,5.10
2022-11-26T10:21:58.813Z,5.13
2022-11-26T10:24:49.583Z,5.77
2022-11-26T10:27:20.364Z,5.50
2022-11-26T10:30:08.660Z,6.27
2022-11-26T10:32:41.724Z,7.53
2022-11-26T10:35:19.358Z,7.90
2022-11-26T10:37:45.878Z,9.03
2022-11-26T10:40:28.642Z,8.07
2022-11-26T10:44:48.870Z,7.03
2022-11-26T10:47:36.149Z,4.27
2022-11-26T10:50:47.159Z,5.97
2022-11-26T10:53:23.273Z,6.07
2022-11-26T10:55:54.143Z,5.60
2022-11-26T10:58:44.464Z,5.50
2022-11-26T11:01:14.827Z,5.10
2022-11-26T11:04:21.829Z,4.73
2022-11-26T11:06:48.451Z,3.60
2022-11-26T11:09:36.670Z,3.93
2022-11-26T11:12:37.709Z,2.23
2022-11-26T11:15:23.907Z,1.90
2022-11-26T11:18:05.666Z,1.43
2022-11-26T11:20:37.238Z,3.40
2022-11-26T11:24:07.810Z,3.47
2022-11-26T11:26:45.478Z,3.77
2022-11-26T11:29:36.421Z,3.77
2022-11-26T11:32:28.436Z,3.87
2022-11-26T11:34:54.964Z,4.00
2022-11-26T11:37:21.444Z,2.47
2022-11-26T11:40:15.866Z,2.10
2022-11-26T11:42:51.022Z,2.07
2022-11-26T11:45:37.099Z,2.13
2022-11-26T11:50:29.852Z,2.43
2022-11-26T11:55:03.753Z,2.10
2022-11-26T11:59:36.973Z,2.17
2022-11-26T12:05:52.107Z,2.30
2022-11-26T12:08:50.531Z,2.30
2022-11-26T12:13:04.679Z,2.97
2022-11-26T12:15:48.518Z,2.60
2022-11-26T12:18:38.557Z,2.70
2022-11-26T12:21:13.746Z,2.70
2022-11-26T12:24:07.284Z,2.40
2022-11-26T12:26:41.893Z,2.47
2022-11-26T12:29:39.961Z,2.67
2022-11-26T12:32:21.388Z,2.13
2022-11-26T12:34:53.785Z,2.37
2022-11-26T12:37:35.275Z,2.30
2022-11-26T12:40:47.508Z,2.07
2022-11-26T12:43:31.012Z,1.80
2022-11-26T12:46:22.932Z,2.10
2022-11-26T12:49:46.555Z,2.17
2022-11-26T12:53:24.532Z,1.77
2022-11-26T12:56:22.723Z,2.00
2022-11-26T13:01:52.155Z,1.87
2022-11-26T13:04:37.317Z,2.33
2022-11-26T13:08:00.780Z,2.00
2022-11-26T13:13:52.850Z,1.90
2022-11-26T13:17:50.715Z,2.07
2022-11-26T13:20:53.637Z,1.90
2022-11-26T13:27:12.286Z,1.40
2022-11-26T13:31:37.726Z,1.53
2022-11-26T13:36:45.868Z,1.40
2022-11-26T13:40:14.583Z,1.70
2022-11-26T13:45:31.109Z,1.70
2022-11-26T13:49:35.368Z,1.67
2022-11-26T13:52:39.711Z,1.70
2022-11-26T13:55:20.420Z,1.97
2022-11-26T13:57:57.366Z,1.93
2022-11-26T14:00:35.609Z,2.00
2022-11-26T14:03:03.343Z,2.03
2022-11-26T14:06:08.267Z,1.90
2022-11-26T14:08:44.137Z,2.13
2022-11-26T14:11:50.330Z,1.90
2022-11-26T14:16:09.647Z,2.07
2022-11-26T14:20:28.035Z,2.07
2022-11-26T14:22:54.511Z,4.70
2022-11-26T14:25:38.107Z,3.37
2022-11-26T14:28:09.515Z,4.50
2022-11-26T14:30:35.976Z,1.70
2022-11-26T14:33:18.243Z,2.07
2022-11-26T14:35:56.110Z,1.90
2022-11-26T14:38:26.756Z,1.80
2022-11-26T14:40:59.164Z,1.70
2022-11-26T14:43:27.120Z,3.40
2022-11-26T14:46:16.612Z,4.37
2022-11-26T14:48:46.960Z,4.97
2022-11-26T14:51:22.803Z,4.70
2022-11-26T14:53:50.519Z,3.50
2022-11-26T14:56:20.525Z,3.70
2022-11-26T14:58:54.469Z,3.30
2022-11-26T15:01:28.406Z,2.80
2022-11-26T15:04:03.025Z,3.40
2022-11-26T15:06:42.145Z,3.77
2022-11-26T15:09:23.652Z,3.30
2022-11-26T15:12:12.561Z,3.10
2022-11-26T15:14:55.059Z,3.43
2022-11-26T15:17:28.925Z,4.37
2022-11-26T15:20:01.070Z,4.63
2022-11-26T15:22:41.772Z,5.23
2022-11-26T15:25:27.445Z,5.27
2022-11-26T15:28:00.866Z,7.87
2022-11-26T15:30:37.925Z,9.93
2022-11-26T15:33:15.498Z,13.17
2022-11-26T15:35:43.014Z,8.10
2022-11-26T15:38:21.971Z,8.13
2022-11-26T15:43:35.769Z,7.30
2022-11-26T15:46:26.411Z,6.73
2022-11-26T15:49:05.042Z,7.67
2022-11-26T15:51:50.811Z,20.70
2022-11-26T15:54:56.900Z,20.33
2022-11-26T15:57:41.249Z,15.10
2022-11-26T16:01:44.876Z,8.43
2022-11-26T16:07:59.283Z,8.53
2022-11-26T16:10:30.635Z,9.27
2022-11-26T16:13:57.527Z,9.60
2022-11-26T16:16:26.686Z,10.07
2022-11-26T16:18:59.383Z,10.90
2022-11-26T16:21:30.507Z,9.70
2022-11-26T16:26:05.454Z,7.97
2022-11-26T16:28:31.883Z,11.37
2022-11-26T16:30:58.416Z,7.60
2022-11-26T16:33:27.690Z,9.17
2022-11-26T16:35:54.743Z,8.10
2022-11-26T16:38:25.030Z,7.63
2022-11-26T16:40:52.281Z,7.37
2022-11-26T16:43:19.205Z,7.83
2022-11-26T16:45:47.991Z,7.67
2022-11-26T16:48:26.395Z,6.30
2022-11-26T16:50:56.532Z,5.80
2022-11-26T16:53:23.281Z,5.77
2022-11-26T16:55:51.460Z,6.33
2022-11-26T16:58:28.888Z,6.43
2022-11-26T17:00:56.307Z,5.53
2022-11-26T17:03:24.828Z,6.57
2022-11-26T17:05:58.201Z,11.37
2022-11-26T17:08:24.668Z,7.63
2022-11-26T17:10:51.163Z,7.63
2022-11-26T17:13:19.697Z,10.77
2022-11-26T17:15:48.362Z,13.83
2022-11-26T17:18:23.226Z,11.10
2022-11-26T17:20:51.696Z,9.20
2022-11-26T17:23:18.514Z,7.70
2022-11-26T17:25:50.626Z,7.80
2022-11-26T17:28:17.200Z,9.60
2022-11-26T17:30:44.567Z,9.20
2022-11-26T17:33:11.734Z,7.73
2022-11-26T17:35:38.493Z,6.37
2022-11-26T17:38:16.238Z,6.87
2022-11-26T17:40:43.805Z,4.87
2022-11-26T17:43:11.799Z,4.80
2022-11-26T17:45:38.978Z,6.80
2022-11-26T17:48:05.913Z,6.37
2022-11-26T17:50:35.415Z,6.13
2022-11-26T17:53:02.988Z,5.57
2022-11-26T17:55:30.543Z,5.33
2022-11-26T17:57:57.535Z,6.60
2022-11-26T18:00:28.524Z,8.50
2022-11-26T18:02:56.001Z,6.10
2022-11-26T18:05:23.156Z,5.47
2022-11-26T18:07:49.929Z,5.87
2022-11-26T18:10:18.615Z,4.87
2022-11-26T18:12:45.532Z,3.57
2022-11-26T18:15:24.666Z,4.10
2022-11-26T18:17:54.634Z,5.27
2022-11-26T18:20:25.722Z,4.90
2022-11-26T18:22:55.463Z,5.27
2022-11-26T18:25:22.231Z,6.60
2022-11-26T18:27:48.714Z,5.77
2022-11-26T18:30:17.006Z,4.43
2022-11-26T18:32:45.356Z,4.80
2022-11-26T18:35:12.766Z,4.37
2022-11-26T18:37:40.250Z,5.50
2022-11-26T18:40:10.479Z,5.20
2022-11-26T18:42:38.139Z,5.17
2022-11-26T18:45:08.747Z,4.90
2022-11-26T18:47:35.297Z,4.80
2022-11-26T18:50:01.738Z,4.47
2022-11-26T18:52:28.207Z,6.00
2022-11-26T18:54:54.758Z,5.87
2022-11-26T18:57:21.234Z,4.63
2022-11-26T18:59:49.671Z,4.43
2022-11-26T19:02:16.604Z,4.33
2022-11-26T19:04:43.075Z,5.07
2022-11-26T19:07:12.040Z,5.50
2022-11-26T19:09:39.073Z,6.87
2022-11-26T19:12:06.244Z,5.33
2022-11-26T19:14:32.703Z,10.07
2022-11-26T19:16:59.793Z,6.43
2022-11-26T19:19:26.977Z,6.83
2022-11-26T19:21:59.342Z,5.40
2022-11-26T19:24:27.914Z,4.50
2022-11-26T19:26:54.390Z,4.43
2022-11-26T19:29:20.872Z,4.83
2022-11-26T19:31:47.333Z,4.27
2022-11-26T19:34:15.465Z,5.40
2022-11-26T19:36:44.989Z,4.60
2022-11-26T19:39:11.434Z,5.67
2022-11-26T19:41:37.929Z,4.77
2022-11-26T19:44:06.197Z,5.63
2022-11-26T19:46:39.710Z,6.20
2022-11-26T19:49:08.736Z,8.20
2022-11-26T19:51:35.188Z,8.30
2022-11-26T19:54:01.686Z,7.87
2022-11-26T19:56:30.718Z,5.10
2022-11-26T19:58:59.834Z,4.53
2022-11-26T20:01:31.805Z,4.40
2022-11-26T20:04:01.185Z,4.77
2022-11-26T20:06:29.932Z,7.77
2022-11-26T20:08:59.861Z,8.17
2022-11-26T20:11:28.288Z,6.97
2022-11-26T20:13:56.359Z,7.90
2022-11-26T20:16:30.410Z,9.03
2022-11-26T20:18:58.703Z,8.63
2022-11-26T20:21:30.976Z,7.33
2022-11-26T20:24:01.293Z,5.57
2022-11-26T20:26:35.957Z,3.73
2022-11-26T20:29:10.109Z,4.10
2022-11-26T20:31:45.669Z,4.23
2022-11-26T20:34:18.152Z,4.10
2022-11-26T20:36:45.022Z,5.17
2022-11-26T20:39:18.061Z,4.30
2022-11-26T20:41:45.976Z,4.13
2022-11-26T20:44:13.769Z,4.27
2022-11-26T20:46:40.952Z,4.57
2022-11-26T20:49:10.102Z,5.60
2022-11-26T20:51:36.572Z,4.80
2022-11-26T20:54:03.081Z,4.90
2022-11-26T20:56:29.679Z,5.03
2022-11-26T20:58:56.149Z,4.30
2022-11-26T21:01:26.665Z,3.47
2022-11-26T21:03:54.325Z,3.57
2022-11-26T21:06:29.613Z,3.93
2022-11-26T21:09:02.491Z,3.20
2022-11-26T21:11:29.637Z,3.60
2022-11-26T21:13:58.991Z,2.97
2022-11-26T21:16:25.748Z,3.13
2022-11-26T21:18:54.036Z,3.17
2022-11-26T21:21:21.455Z,3.00
2022-11-26T21:23:47.928Z,4.13
2022-11-26T21:26:23.659Z,3.83
2022-11-26T21:28:52.462Z,3.67
2022-11-26T21:31:21.339Z,3.53
2022-11-26T21:34:04.723Z,3.03
2022-11-26T21:36:34.678Z,3.80
2022-11-26T21:39:02.240Z,3.43
2022-11-26T21:41:31.168Z,3.30
2022-11-26T21:44:02.221Z,2.87
2022-11-26T21:46:33.646Z,2.57
2022-11-26T21:49:02.916Z,3.43
2022-11-26T21:51:30.217Z,3.03
2022-11-26T21:53:57.984Z,2.90
2022-11-26T21:56:30.837Z,2.83
2022-11-26T21:58:59.284Z,4.43
2022-11-26T22:01:35.318Z,3.97
2022-11-26T22:04:06.611Z,3.30
2022-11-26T22:06:33.658Z,5.50
2022-11-26T22:09:00.210Z,3.53
2022-11-26T22:11:31.515Z,3.47
2022-11-26T22:13:58.318Z,3.67
2022-11-26T22:16:27.275Z,4.80
2022-11-26T22:18:55.664Z,5.57
2022-11-26T22:21:30.011Z,5.30
2022-11-26T22:23:58.622Z,4.50
2022-11-26T22:26:27.272Z,3.97
2022-11-26T22:28:56.981Z,3.80
2022-11-26T22:31:30.332Z,3.63
2022-11-26T22:34:26.106Z,5.77
2022-11-26T22:36:52.568Z,5.17
2022-11-26T22:39:19.351Z,4.60
2022-11-26T22:41:47.397Z,3.90
2022-11-26T22:44:15.383Z,3.73
2022-11-26T22:46:44.923Z,4.10
2022-11-26T22:49:15.166Z,3.97
2022-11-26T22:51:41.941Z,3.33
2022-11-26T22:54:12.095Z,3.30
2022-11-26T22:56:38.838Z,3.57
2022-11-26T22:59:09.986Z,3.90
2022-11-26T23:01:37.369Z,3.23
2022-11-26T23:04:09.058Z,3.10
2022-11-26T23:06:36.927Z,3.00
2022-11-26T23:09:06.607Z,3.17
2022-11-26T23:11:38.547Z,3.53
2022-11-26T23:14:06.580Z,3.50
2022-11-26T23:16:34.533Z,3.50
2022-11-26T23:19:02.142Z,4.43
2022-11-26T23:21:36.202Z,3.87
2022-11-26T23:24:02.683Z,4.00
2022-11-26T23:26:33.898Z,2.90
2022-11-26T23:29:02.424Z,3.20
2022-11-26T23:31:33.281Z,3.43
2022-11-26T23:34:00.396Z,2.70
2022-11-26T23:36:28.662Z,3.20
2022-11-26T23:38:57.905Z,3.43
2022-11-26T23:41:24.373Z,3.60
2022-11-26T23:43:50.831Z,3.33
2022-11-26T23:46:34.462Z,3.93
2022-11-26T23:49:00.924Z,4.00
2022-11-26T23:51:31.658Z,8.47
2022-11-26T23:53:58.531Z,9.57
2022-11-26T23:56:31.328Z,27.13
2022-11-26T23:59:02.050Z,8.50
